createdAt,value
2022-11-28T00:00:34.477Z,0.00
2022-11-28T00:01:34.368Z,0.00
2022-11-28T00:02:34.468Z,0.00
2022-11-28T00:03:34.405Z,0.00
2022-11-28T00:04:34.367Z,0.00
2022-11-28T00:05:34.264Z,0.00
2022-11-28T00:06:34.343Z,0.00
2022-11-28T00:07:34.303Z,0.00
2022-11-28T00:08:34.299Z,0.00
2022-11-28T00:09:34.208Z,0.00
2022-11-28T00:10:34.291Z,0.00
2022-11-28T00:11:34.206Z,0.00
2022-11-28T00:12:34.261Z,0.00
2022-11-28T00:13:34.171Z,0.00
2022-11-28T00:14:34.437Z,0.00
2022-11-28T00:15:34.227Z,0.00
2022-11-28T00:16:34.365Z,0.00
2022-11-28T00:17:34.116Z,0.00
2022-11-28T00:18:34.240Z,0.00
2022-11-28T00:19:34.086Z,0.00
2022-11-28T00:20:34.149Z,0.00
2022-11-28T00:21:34.057Z,0.00
2022-11-28T00:22:34.118Z,0.00
2022-11-28T00:23:34.042Z,0.00
2022-11-28T00:24:34.096Z,0.00
2022-11-28T00:25:34.008Z,0.00
2022-11-28T00:26:34.070Z,0.00
2022-11-28T00:27:33.972Z,0.00
2022-11-28T00:28:34.043Z,0.00
2022-11-28T00:29:33.959Z,0.00
2022-11-28T00:30:34.016Z,0.00
2022-11-28T00:31:34.040Z,0.00
2022-11-28T00:32:33.987Z,0.00
2022-11-28T00:33:33.899Z,0.00
2022-11-28T00:34:33.956Z,0.00
2022-11-28T00:35:33.864Z,0.00
2022-11-28T00:36:33.933Z,0.00
2022-11-28T00:37:33.853Z,0.00
2022-11-28T00:38:33.900Z,0.00
2022-11-28T00:39:33.814Z,0.00
2022-11-28T00:40:33.879Z,0.00
2022-11-28T00:41:33.802Z,0.00
2022-11-28T00:42:33.858Z,0.00
2022-11-28T00:43:33.770Z,0.00
2022-11-28T00:44:34.008Z,0.00
2022-11-28T00:45:33.754Z,0.00
2022-11-28T00:46:33.800Z,0.00
2022-11-28T00:47:33.715Z,0.00
2022-11-28T00:48:33.758Z,0.00
2022-11-28T00:49:33.697Z,0.00
2022-11-28T00:50:33.739Z,0.00
2022-11-28T00:51:33.673Z,0.00
2022-11-28T00:52:33.721Z,0.00
2022-11-28T00:53:33.620Z,0.00
2022-11-28T00:54:33.689Z,0.00
2022-11-28T00:55:33.596Z,0.00
2022-11-28T00:56:33.647Z,0.00
2022-11-28T00:57:33.566Z,0.00
2022-11-28T00:58:33.635Z,0.00
2022-11-28T00:59:33.540Z,0.00
2022-11-28T01:00:33.630Z,0.00
2022-11-28T01:01:33.631Z,0.00
2022-11-28T01:02:33.604Z,0.00
2022-11-28T01:03:33.499Z,0.00
2022-11-28T01:04:33.557Z,0.00
2022-11-28T01:05:33.480Z,0.00
2022-11-28T01:06:33.567Z,0.00
2022-11-28T01:07:33.537Z,0.00
2022-11-28T01:08:33.501Z,0.00
2022-11-28T01:09:33.422Z,0.00
2022-11-28T01:10:33.489Z,0.00
2022-11-28T01:11:33.398Z,0.00
2022-11-28T01:12:33.463Z,0.00
2022-11-28T01:13:33.371Z,0.00
2022-11-28T01:14:33.426Z,0.00
2022-11-28T01:15:33.343Z,0.00
2022-11-28T01:16:33.452Z,0.00
2022-11-28T01:17:33.305Z,0.00
2022-11-28T01:18:33.382Z,0.00
2022-11-28T01:19:33.288Z,0.00
2022-11-28T01:20:33.356Z,0.00
2022-11-28T01:21:33.253Z,0.00
2022-11-28T01:22:33.306Z,0.00
2022-11-28T01:23:33.241Z,0.00
2022-11-28T01:24:33.285Z,0.00
2022-11-28T01:25:33.206Z,0.00
2022-11-28T01:26:33.267Z,0.00
2022-11-28T01:27:33.182Z,0.00
2022-11-28T01:28:33.296Z,0.00
2022-11-28T01:29:33.142Z,0.00
2022-11-28T01:30:33.208Z,0.00
2022-11-28T01:31:33.165Z,0.00
2022-11-28T01:32:33.184Z,0.00
2022-11-28T01:33:33.088Z,0.00
2022-11-28T01:34:33.144Z,0.00
2022-11-28T01:35:33.058Z,0.00
2022-11-28T01:36:33.128Z,0.00
2022-11-28T01:37:33.045Z,0.00
2022-11-28T01:38:33.095Z,0.00
2022-11-28T01:39:33.009Z,0.00
2022-11-28T01:40:33.078Z,0.00
2022-11-28T01:41:32.982Z,0.00
2022-11-28T01:42:33.034Z,0.00
2022-11-28T01:43:32.949Z,0.00
2022-11-28T01:44:33.023Z,0.00
2022-11-28T01:45:32.941Z,0.00
2022-11-28T01:46:33.066Z,0.00
2022-11-28T01:47:32.913Z,0.00
2022-11-28T01:48:32.967Z,0.00
2022-11-28T01:49:32.873Z,0.00
2022-11-28T01:50:32.939Z,0.00
2022-11-28T01:51:32.859Z,0.00
2022-11-28T01:52:32.916Z,0.00
2022-11-28T01:53:32.818Z,0.00
2022-11-28T01:54:32.906Z,0.00
2022-11-28T01:55:32.796Z,0.00
2022-11-28T01:56:32.857Z,0.00
2022-11-28T01:57:32.765Z,0.00
2022-11-28T01:58:32.834Z,0.00
2022-11-28T01:59:32.755Z,0.00
2022-11-28T02:00:32.860Z,0.00
2022-11-28T02:01:32.716Z,0.00
2022-11-28T02:02:32.831Z,0.00
2022-11-28T02:03:32.693Z,0.00
2022-11-28T02:04:32.775Z,0.00
2022-11-28T02:05:32.676Z,0.00
2022-11-28T02:06:32.736Z,0.00
2022-11-28T02:07:32.703Z,0.00
2022-11-28T02:08:32.720Z,0.00
2022-11-28T02:09:32.614Z,0.00
2022-11-28T02:10:32.665Z,0.00
2022-11-28T02:11:32.591Z,0.00
2022-11-28T02:12:32.650Z,0.00
2022-11-28T02:13:32.572Z,0.00
2022-11-28T02:14:32.624Z,0.00
2022-11-28T02:15:32.540Z,0.00
2022-11-28T02:16:32.657Z,0.00
2022-11-28T02:17:32.517Z,0.00
2022-11-28T02:18:32.585Z,0.00
2022-11-28T02:19:32.477Z,0.00
2022-11-28T02:20:32.558Z,0.00
2022-11-28T02:21:32.465Z,0.00
2022-11-28T02:22:32.527Z,0.00
2022-11-28T02:23:32.433Z,0.00
2022-11-28T02:24:32.503Z,0.00
2022-11-28T02:25:32.409Z,0.00
2022-11-28T02:26:32.492Z,0.00
2022-11-28T02:27:32.374Z,0.00
2022-11-28T02:28:32.461Z,0.00
2022-11-28T02:29:32.341Z,0.00
2022-11-28T02:30:32.414Z,0.00
2022-11-28T02:31:32.371Z,0.00
2022-11-28T02:32:32.393Z,0.00
2022-11-28T02:33:32.301Z,0.00
2022-11-28T02:34:32.358Z,0.00
2022-11-28T02:35:32.270Z,0.00
2022-11-28T02:36:32.347Z,0.00
2022-11-28T02:37:32.239Z,0.00
2022-11-28T02:38:32.378Z,0.00
2022-11-28T02:39:32.211Z,0.00
2022-11-28T02:40:32.310Z,0.00
2022-11-28T02:41:32.183Z,0.00
2022-11-28T02:42:32.257Z,0.00
2022-11-28T02:43:32.170Z,0.00
2022-11-28T02:44:32.222Z,0.00
2022-11-28T02:45:32.124Z,0.00
2022-11-28T02:46:32.260Z,0.00
2022-11-28T02:47:32.103Z,0.00
2022-11-28T02:48:32.166Z,0.00
2022-11-28T02:49:32.071Z,0.00
2022-11-28T02:50:32.138Z,0.00
2022-11-28T02:51:32.042Z,0.00
2022-11-28T02:52:32.120Z,0.00
2022-11-28T02:53:32.029Z,0.00
2022-11-28T02:54:32.077Z,0.00
2022-11-28T02:55:31.989Z,0.00
2022-11-28T02:56:32.071Z,0.00
2022-11-28T02:57:31.967Z,0.00
2022-11-28T02:58:32.050Z,0.00
2022-11-28T02:59:31.954Z,0.00
2022-11-28T03:00:32.107Z,0.00
2022-11-28T03:01:31.968Z,0.00
2022-11-28T03:02:32.110Z,0.00
2022-11-28T03:03:31.902Z,0.00
2022-11-28T03:04:32.057Z,0.00
2022-11-28T03:05:31.861Z,0.00
2022-11-28T03:06:31.933Z,0.00
2022-11-28T03:07:31.898Z,0.00
2022-11-28T03:08:31.911Z,0.00
2022-11-28T03:09:31.806Z,0.00
2022-11-28T03:10:31.868Z,0.00
2022-11-28T03:11:31.787Z,0.00
2022-11-28T03:12:31.856Z,0.00
2022-11-28T03:13:31.753Z,0.00
2022-11-28T03:14:31.824Z,0.00
2022-11-28T03:15:31.740Z,0.00
2022-11-28T03:16:31.927Z,0.00
2022-11-28T03:17:31.700Z,0.00
2022-11-28T03:18:31.775Z,0.00
2022-11-28T03:19:31.685Z,0.00
2022-11-28T03:20:31.732Z,0.00
2022-11-28T03:21:31.657Z,0.00
2022-11-28T03:22:31.714Z,0.00
2022-11-28T03:23:31.636Z,0.00
2022-11-28T03:24:31.703Z,0.00
2022-11-28T03:25:31.615Z,0.00
2022-11-28T03:26:31.665Z,0.00
2022-11-28T03:27:31.567Z,0.00
2022-11-28T03:28:31.646Z,0.00
2022-11-28T03:29:31.551Z,0.00
2022-11-28T03:30:31.617Z,0.00
2022-11-28T03:31:31.577Z,0.00
2022-11-28T03:32:31.577Z,0.00
2022-11-28T03:33:31.498Z,0.00
2022-11-28T03:34:31.554Z,0.00
2022-11-28T03:35:31.458Z,0.00
2022-11-28T03:36:31.521Z,0.00
2022-11-28T03:37:31.444Z,0.00
2022-11-28T03:38:31.513Z,0.00
2022-11-28T03:39:31.407Z,0.00
2022-11-28T03:40:31.463Z,0.00
2022-11-28T03:41:31.395Z,0.00
2022-11-28T03:42:31.464Z,0.00
2022-11-28T03:43:31.363Z,0.00
2022-11-28T03:44:31.423Z,0.00
2022-11-28T03:45:31.340Z,0.00
2022-11-28T03:46:31.441Z,0.00
2022-11-28T03:47:31.306Z,0.00
2022-11-28T03:48:31.367Z,0.00
2022-11-28T03:49:31.270Z,0.00
2022-11-28T03:50:31.325Z,0.00
2022-11-28T03:51:31.253Z,0.00
2022-11-28T03:52:31.304Z,0.00
2022-11-28T03:53:31.215Z,0.00
2022-11-28T03:54:31.281Z,0.00
2022-11-28T03:55:31.233Z,0.00
2022-11-28T03:56:31.267Z,0.00
2022-11-28T03:57:31.167Z,0.00
2022-11-28T03:58:31.219Z,0.00
2022-11-28T03:59:31.136Z,0.00
2022-11-28T04:00:31.296Z,0.00
2022-11-28T04:01:31.211Z,0.00
2022-11-28T04:02:31.319Z,0.00
2022-11-28T04:03:31.114Z,0.00
2022-11-28T04:04:31.159Z,0.00
2022-11-28T04:05:31.073Z,0.00
2022-11-28T04:06:31.190Z,0.00
2022-11-28T04:07:31.040Z,0.00
2022-11-28T04:08:31.088Z,0.00
2022-11-28T04:09:31.020Z,0.00
2022-11-28T04:10:31.108Z,0.00
2022-11-28T04:11:30.991Z,0.00
2022-11-28T04:12:31.047Z,0.00
2022-11-28T04:13:30.963Z,0.00
2022-11-28T04:14:31.033Z,0.00
2022-11-28T04:15:30.929Z,0.00
2022-11-28T04:16:31.022Z,0.00
2022-11-28T04:17:30.906Z,0.00
2022-11-28T04:18:30.980Z,0.00
2022-11-28T04:19:30.888Z,0.00
2022-11-28T04:20:30.952Z,0.00
2022-11-28T04:21:30.858Z,0.00
2022-11-28T04:22:30.964Z,0.00
2022-11-28T04:23:30.837Z,0.00
2022-11-28T04:24:30.893Z,0.00
2022-11-28T04:25:30.796Z,0.00
2022-11-28T04:26:30.871Z,0.00
2022-11-28T04:27:30.768Z,0.00
2022-11-28T04:28:30.856Z,0.00
2022-11-28T04:29:30.753Z,0.00
2022-11-28T04:30:30.821Z,0.00
2022-11-28T04:31:30.759Z,0.00
2022-11-28T04:32:30.784Z,0.00
2022-11-28T04:33:30.693Z,0.00
2022-11-28T04:34:30.781Z,0.00
2022-11-28T04:35:30.656Z,0.00
2022-11-28T04:36:30.740Z,0.00
2022-11-28T04:37:30.655Z,0.00
2022-11-28T04:38:30.703Z,0.00
2022-11-28T04:39:30.606Z,0.00
2022-11-28T04:40:30.690Z,0.00
2022-11-28T04:41:30.580Z,0.00
2022-11-28T04:42:30.682Z,0.00
2022-11-28T04:43:30.568Z,0.00
2022-11-28T04:44:30.629Z,0.00
2022-11-28T04:45:30.605Z,0.00
2022-11-28T04:46:30.633Z,0.00
2022-11-28T04:47:30.498Z,0.00
2022-11-28T04:48:34.289Z,0.00
2022-11-28T04:49:30.473Z,0.00
2022-11-28T04:50:30.549Z,0.00
2022-11-28T04:51:30.452Z,0.00
2022-11-28T04:52:30.516Z,0.00
2022-11-28T04:53:30.422Z,0.00
2022-11-28T04:54:30.492Z,0.00
2022-11-28T04:55:30.390Z,0.00
2022-11-28T04:56:30.463Z,0.00
2022-11-28T04:57:30.368Z,0.00
2022-11-28T04:58:30.438Z,0.00
2022-11-28T04:59:30.335Z,0.00
2022-11-28T05:00:30.457Z,0.00
2022-11-28T05:01:30.453Z,0.00
2022-11-28T05:02:30.466Z,0.00
2022-11-28T05:03:30.282Z,0.00
2022-11-28T05:04:30.367Z,0.00
2022-11-28T05:05:30.270Z,0.00
2022-11-28T05:06:30.317Z,0.00
2022-11-28T05:07:30.310Z,0.00
2022-11-28T05:08:30.307Z,0.00
2022-11-28T05:09:30.222Z,0.00
2022-11-28T05:10:30.289Z,0.00
2022-11-28T05:11:30.174Z,0.00
2022-11-28T05:12:30.260Z,0.00
2022-11-28T05:13:30.168Z,0.00
2022-11-28T05:14:30.236Z,0.00
2022-11-28T05:16:04.897Z,0.00
2022-11-28T05:17:05.952Z,0.00
2022-11-28T05:18:05.820Z,0.00
2022-11-28T05:19:05.872Z,0.00
2022-11-28T05:20:05.819Z,0.00
2022-11-28T05:21:05.852Z,0.00
2022-11-28T05:22:05.776Z,0.00
2022-11-28T05:23:05.837Z,0.00
2022-11-28T05:24:05.741Z,0.00
2022-11-28T05:25:05.817Z,0.00
2022-11-28T05:26:05.715Z,0.00
2022-11-28T05:27:05.852Z,0.00
2022-11-28T05:28:05.678Z,0.00
2022-11-28T05:29:05.742Z,0.00
2022-11-28T05:30:05.667Z,0.00
2022-11-28T05:31:05.836Z,0.00
2022-11-28T05:32:05.671Z,0.00
2022-11-28T05:33:05.707Z,0.00
2022-11-28T05:34:05.607Z,0.00
2022-11-28T05:35:05.675Z,0.00
2022-11-28T05:36:09.912Z,0.00
2022-11-28T05:50:02.302Z,0.00
2022-11-28T05:51:03.250Z,0.00
2022-11-28T05:52:03.168Z,0.00
2022-11-28T05:53:03.256Z,0.00
2022-11-28T05:54:03.183Z,0.00
2022-11-28T05:55:03.226Z,0.00
2022-11-28T05:56:03.119Z,0.00
2022-11-28T05:57:03.180Z,0.00
2022-11-28T05:58:03.105Z,0.00
2022-11-28T05:59:04.160Z,0.00
2022-11-28T06:00:03.155Z,0.00
2022-11-28T06:01:03.053Z,0.00
2022-11-28T06:02:03.178Z,0.00
2022-11-28T06:03:03.045Z,0.00
2022-11-28T06:04:03.163Z,0.00
2022-11-28T06:05:21.092Z,0.00
2022-11-28T06:06:03.084Z,0.00
2022-11-28T06:07:02.983Z,0.00
2022-11-28T06:08:03.301Z,0.00
2022-11-28T06:09:02.954Z,0.00
2022-11-28T06:10:03.031Z,0.00
2022-11-28T06:11:02.939Z,0.00
2022-11-28T06:12:04.016Z,0.00
2022-11-28T06:13:03.064Z,0.00
2022-11-28T06:14:02.900Z,0.00
2022-11-28T06:15:02.956Z,0.00
2022-11-28T06:16:02.969Z,0.00
2022-11-28T06:17:03.026Z,0.00
2022-11-28T06:18:02.853Z,0.00
2022-11-28T06:19:02.937Z,0.00
2022-11-28T06:20:02.829Z,0.00
2022-11-28T06:21:02.900Z,0.00
2022-11-28T06:22:02.814Z,0.00
2022-11-28T06:23:02.860Z,0.00
2022-11-28T06:24:02.897Z,0.00
2022-11-28T06:25:02.749Z,0.00
2022-11-28T06:26:02.807Z,0.00
2022-11-28T06:27:02.713Z,0.00
2022-11-28T06:28:02.875Z,0.00
2022-11-28T06:29:02.707Z,0.00
2022-11-28T06:30:02.986Z,0.00
2022-11-28T06:31:02.701Z,4.00
2022-11-28T06:32:02.834Z,0.00
2022-11-28T06:33:02.653Z,4.00
2022-11-28T06:34:02.717Z,4.00
2022-11-28T06:35:02.615Z,4.00
2022-11-28T06:36:02.695Z,8.00
2022-11-28T06:37:02.586Z,4.00
2022-11-28T06:38:02.657Z,8.00
2022-11-28T06:39:02.586Z,8.00
2022-11-28T06:40:02.646Z,12.00
2022-11-28T06:41:02.534Z,12.00
2022-11-28T06:42:02.612Z,16.00
2022-11-28T06:43:02.519Z,16.00
2022-11-28T06:44:03.072Z,16.00
2022-11-28T06:45:02.497Z,20.00
2022-11-28T06:46:02.647Z,24.00
2022-11-28T06:47:02.532Z,28.00
2022-11-28T06:48:02.519Z,32.00
2022-11-28T06:49:02.447Z,36.00
2022-11-28T06:50:02.682Z,40.00
2022-11-28T06:51:02.417Z,40.00
2022-11-28T06:52:02.488Z,44.00
2022-11-28T06:53:02.379Z,48.00
2022-11-28T06:54:02.525Z,52.00
2022-11-28T06:55:02.362Z,52.00
2022-11-28T06:56:02.436Z,56.00
2022-11-28T06:57:02.340Z,64.00
2022-11-28T06:58:02.384Z,64.00
2022-11-28T06:59:02.313Z,68.00
2022-11-28T07:00:08.332Z,72.00
2022-11-28T07:01:02.385Z,72.00
2022-11-28T07:02:07.267Z,80.00
2022-11-28T07:03:02.431Z,84.00
2022-11-28T07:04:02.273Z,92.00
2022-11-28T07:05:02.334Z,100.00
2022-11-28T07:06:02.211Z,108.00
2022-11-28T07:07:02.281Z,116.00
2022-11-28T07:08:02.194Z,124.00
2022-11-28T07:09:03.250Z,132.00
2022-11-28T07:10:02.444Z,136.00
2022-11-28T07:11:02.134Z,144.00
2022-11-28T07:12:02.246Z,148.00
2022-11-28T07:13:05.365Z,156.00
2022-11-28T07:14:02.184Z,164.00
2022-11-28T07:15:02.090Z,172.00
2022-11-28T07:16:02.149Z,176.00
2022-11-28T07:17:02.121Z,188.00
2022-11-28T07:18:08.078Z,196.00
2022-11-28T07:19:02.134Z,204.00
2022-11-28T07:20:02.028Z,212.00
2022-11-28T07:21:02.097Z,224.00
2022-11-28T07:22:02.007Z,236.00
2022-11-28T07:23:02.095Z,248.00
2022-11-28T07:24:01.982Z,260.00
2022-11-28T07:25:02.045Z,268.00
2022-11-28T07:26:01.963Z,280.00
2022-11-28T07:27:02.026Z,292.00
2022-11-28T07:28:01.931Z,304.00
2022-11-28T07:29:02.010Z,316.00
2022-11-28T07:30:01.904Z,324.00
2022-11-28T07:31:01.971Z,336.00
2022-11-28T07:32:01.967Z,340.00
2022-11-28T07:33:01.930Z,356.00
2022-11-28T07:34:01.845Z,364.00
2022-11-28T07:35:01.917Z,380.00
2022-11-28T07:36:01.827Z,396.00
2022-11-28T07:37:01.902Z,416.00
2022-11-28T07:38:01.794Z,436.00
2022-11-28T07:39:01.866Z,456.00
2022-11-28T07:40:01.783Z,472.00
2022-11-28T07:41:01.860Z,480.00
2022-11-28T07:42:02.352Z,484.00
2022-11-28T07:43:02.803Z,484.00
2022-11-28T07:44:01.794Z,476.00
2022-11-28T07:45:01.708Z,472.00
2022-11-28T07:46:01.956Z,464.00
2022-11-28T07:47:01.721Z,464.00
2022-11-28T07:48:01.759Z,464.00
2022-11-28T07:49:01.649Z,464.00
2022-11-28T07:50:01.716Z,468.00
2022-11-28T07:51:01.625Z,476.00
2022-11-28T07:52:01.717Z,476.00
2022-11-28T07:53:06.810Z,484.00
2022-11-28T07:54:02.669Z,488.00
2022-11-28T07:55:02.661Z,492.00
2022-11-28T07:56:01.641Z,488.00
2022-11-28T07:57:12.467Z,488.00
2022-11-28T07:58:01.625Z,488.00
2022-11-28T07:59:03.327Z,488.00
2022-11-28T08:00:01.598Z,484.00
2022-11-28T08:01:01.500Z,480.00
2022-11-28T08:02:01.839Z,476.00
2022-11-28T08:03:01.466Z,468.00
2022-11-28T08:04:01.878Z,464.00
2022-11-28T08:05:01.470Z,460.00
2022-11-28T08:06:03.035Z,464.00
2022-11-28T08:07:01.428Z,472.00
2022-11-28T08:08:01.546Z,484.00
2022-11-28T08:09:01.396Z,508.00
2022-11-28T08:10:01.464Z,532.00
2022-11-28T08:11:01.355Z,560.00
2022-11-28T08:12:01.436Z,584.00
2022-11-28T08:13:01.332Z,600.00
2022-11-28T08:14:01.407Z,612.00
2022-11-28T08:15:01.299Z,612.00
2022-11-28T08:16:01.539Z,616.00
2022-11-28T08:17:01.386Z,620.00
2022-11-28T08:18:01.355Z,628.00
2022-11-28T08:19:01.253Z,640.00
2022-11-28T08:20:01.312Z,644.00
2022-11-28T08:21:01.225Z,652.00
2022-11-28T08:22:01.319Z,660.00
2022-11-28T08:23:01.200Z,668.00
2022-11-28T08:24:01.278Z,668.00
2022-11-28T08:25:01.169Z,668.00
2022-11-28T08:26:01.229Z,676.00
2022-11-28T08:27:01.174Z,692.00
2022-11-28T08:28:01.214Z,704.00
2022-11-28T08:29:01.130Z,724.00
2022-11-28T08:30:01.197Z,736.00
2022-11-28T08:31:01.149Z,740.00
2022-11-28T08:32:01.183Z,740.00
2022-11-28T08:33:01.088Z,736.00
2022-11-28T08:34:01.139Z,744.00
2022-11-28T08:35:01.037Z,752.00
2022-11-28T08:36:01.118Z,736.00
2022-11-28T08:37:01.096Z,732.00
2022-11-28T08:38:02.212Z,736.00
2022-11-28T08:39:22.856Z,744.00
2022-11-28T08:40:01.131Z,752.00
2022-11-28T08:41:00.983Z,768.00
2022-11-28T08:42:01.055Z,800.00
2022-11-28T08:43:00.934Z,840.00
2022-11-28T08:44:01.031Z,884.00
2022-11-28T08:45:00.919Z,928.00
2022-11-28T08:46:01.118Z,972.00
2022-11-28T08:47:00.898Z,1008.00
2022-11-28T08:48:00.959Z,1020.00
2022-11-28T08:49:00.860Z,1036.00
2022-11-28T08:50:00.927Z,1056.00
2022-11-28T08:51:00.860Z,1080.00
2022-11-28T08:52:00.903Z,1112.00
2022-11-28T08:53:07.651Z,1140.00
2022-11-28T08:54:01.886Z,1160.00
2022-11-28T08:55:00.894Z,1168.00
2022-11-28T08:56:00.787Z,1172.00
2022-11-28T08:57:00.850Z,1180.00
2022-11-28T08:58:00.748Z,1184.00
2022-11-28T08:59:00.801Z,1188.00
2022-11-28T09:00:00.707Z,1200.00
2022-11-28T09:01:00.822Z,1224.00
2022-11-28T09:02:00.700Z,1252.00
2022-11-28T09:03:00.763Z,1280.00
2022-11-28T09:04:00.793Z,1320.00
2022-11-28T09:05:00.718Z,1348.00
2022-11-28T09:06:00.632Z,1388.00
2022-11-28T09:07:00.714Z,1424.00
2022-11-28T09:08:00.763Z,1436.00
2022-11-28T09:09:00.696Z,1432.00
2022-11-28T09:10:00.580Z,1416.00
2022-11-28T09:11:00.673Z,1400.00
2022-11-28T09:12:00.571Z,1384.00
2022-11-28T09:13:00.630Z,1380.00
2022-11-28T09:14:00.530Z,1384.00
2022-11-28T09:15:00.658Z,1388.00
2022-11-28T09:16:00.503Z,1388.00
2022-11-28T09:17:00.729Z,1396.00
2022-11-28T09:18:00.489Z,1400.00
2022-11-28T09:19:00.563Z,1400.00
2022-11-28T09:20:00.469Z,1400.00
2022-11-28T09:21:00.535Z,1404.00
2022-11-28T09:22:00.435Z,1408.00
2022-11-28T09:23:00.583Z,1396.00
2022-11-28T09:24:00.393Z,1384.00
2022-11-28T09:25:00.478Z,1356.00
2022-11-28T09:26:00.387Z,1324.00
2022-11-28T09:27:00.454Z,1300.00
2022-11-28T09:28:00.347Z,1264.00
2022-11-28T09:29:00.428Z,1248.00
2022-11-28T09:30:00.340Z,1228.00
2022-11-28T09:31:00.459Z,1180.00
2022-11-28T09:32:00.309Z,1116.00
2022-11-28T09:33:00.377Z,1072.00
2022-11-28T09:34:00.265Z,1064.00
2022-11-28T09:35:00.346Z,1068.00
2022-11-28T09:36:00.258Z,1120.00
